createdAt,value
2018-08-18T00:00:55.426Z,23.45
2018-08-18T00:03:24.261Z,23.47
2018-08-18T00:05:54.376Z,23.44
2018-08-18T00:08:23.295Z,23.38
2018-08-18T00:10:53.838Z,23.36
2018-08-18T00:13:23.544Z,23.35
2018-08-18T00:15:53.178Z,23.33
2018-08-18T00:18:22.826Z,23.33
2018-08-18T00:20:52.062Z,23.41
2018-08-18T00:23:22.331Z,23.39
2018-08-18T00:25:53.193Z,23.26
2018-08-18T00:28:25.868Z,23.20
2018-08-18T00:30:56.708Z,23.19
2018-08-18T00:33:26.780Z,23.20
2018-08-18T00:35:57.019Z,23.21
2018-08-18T00:38:27.042Z,23.16
2018-08-18T00:40:56.644Z,23.14
2018-08-18T00:43:26.069Z,23.11
2018-08-18T00:45:56.727Z,23.05
2018-08-18T00:48:25.416Z,23.01
2018-08-18T00:50:54.170Z,23.00
2018-08-18T00:53:22.840Z,22.98
2018-08-18T00:55:51.551Z,23.01
2018-08-18T00:58:27.277Z,23.00
2018-08-18T01:01:01.839Z,22.97
2018-08-18T01:03:31.510Z,22.96
2018-08-18T01:06:14.177Z,22.91
2018-08-18T01:08:45.062Z,22.94
2018-08-18T01:11:14.800Z,22.92
2018-08-18T01:13:43.975Z,22.90
2018-08-18T01:16:13.755Z,22.85
2018-08-18T01:18:43.659Z,22.81
2018-08-18T01:21:14.226Z,22.81
2018-08-18T01:23:44.244Z,22.79
2018-08-18T01:26:14.116Z,22.75
2018-08-18T01:28:44.987Z,22.74
2018-08-18T01:31:18.013Z,22.76
2018-08-18T01:33:49.472Z,22.78
2018-08-18T01:36:18.771Z,22.80
2018-08-18T01:38:48.223Z,22.81
2018-08-18T01:41:23.503Z,22.83
2018-08-18T01:44:03.396Z,22.84
2018-08-18T01:46:33.380Z,22.81
2018-08-18T01:49:35.497Z,22.80
2018-08-18T01:52:06.464Z,22.77
2018-08-18T01:57:08.942Z,22.60
2018-08-18T01:59:39.318Z,22.59
2018-08-18T02:02:14.740Z,22.61
2018-08-18T02:04:44.726Z,22.61
2018-08-18T02:07:23.997Z,22.65
2018-08-18T02:09:53.083Z,22.67
2018-08-18T02:12:23.656Z,22.67
2018-08-18T02:14:54.414Z,22.62
2018-08-18T02:17:35.553Z,22.58
2018-08-18T02:20:06.487Z,22.54
2018-08-18T02:22:36.658Z,22.53
2018-08-18T02:25:06.423Z,22.46
2018-08-18T02:27:36.743Z,22.40
2018-08-18T02:30:16.077Z,22.36
2018-08-18T02:32:44.903Z,22.32
2018-08-18T02:35:13.803Z,22.27
2018-08-18T02:37:43.570Z,22.21
2018-08-18T02:40:14.474Z,22.21
2018-08-18T02:42:44.932Z,22.16
2018-08-18T02:45:16.728Z,22.11
2018-08-18T02:47:46.294Z,22.08
2018-08-18T02:50:16.149Z,22.05
2018-08-18T02:52:45.729Z,22.04
2018-08-18T02:55:16.817Z,22.08
2018-08-18T02:57:47.123Z,22.07
2018-08-18T03:00:27.103Z,22.06
2018-08-18T03:02:57.606Z,22.05
2018-08-18T03:05:28.367Z,22.07
2018-08-18T03:07:57.637Z,22.02
2018-08-18T03:10:27.518Z,21.99
2018-08-18T03:12:58.173Z,21.95
2018-08-18T03:16:07.154Z,21.97
2018-08-18T03:18:38.566Z,21.96
2018-08-18T03:21:09.408Z,21.95
2018-08-18T03:23:39.496Z,21.90
2018-08-18T03:26:08.305Z,21.89
2018-08-18T03:28:41.987Z,21.88
2018-08-18T03:31:11.486Z,21.87
2018-08-18T03:33:40.897Z,21.85
2018-08-18T03:36:23.979Z,21.82
2018-08-18T03:38:54.344Z,21.78
2018-08-18T03:41:24.940Z,21.80
2018-08-18T03:43:54.910Z,21.80
2018-08-18T03:46:24.828Z,21.76
2018-08-18T03:48:54.603Z,21.82
2018-08-18T03:51:58.266Z,21.83
2018-08-18T03:54:28.946Z,21.82
2018-08-18T03:56:58.779Z,21.84
2018-08-18T03:59:28.154Z,21.93
2018-08-18T04:02:00.907Z,21.88
2018-08-18T04:04:34.081Z,21.86
2018-08-18T04:07:04.485Z,21.83
2018-08-18T04:09:40.120Z,21.81
2018-08-18T04:12:11.326Z,21.79
2018-08-18T04:14:43.520Z,21.78
2018-08-18T04:17:23.872Z,21.79
2018-08-18T04:19:54.575Z,21.80
2018-08-18T04:22:24.264Z,21.77
2018-08-18T04:24:53.065Z,21.71
2018-08-18T04:27:33.809Z,21.72
2018-08-18T04:30:04.279Z,21.72
2018-08-18T04:32:38.879Z,21.74
2018-08-18T04:35:07.927Z,21.74
2018-08-18T04:37:37.413Z,21.77
2018-08-18T04:40:07.454Z,21.77
2018-08-18T04:42:36.811Z,21.79
2018-08-18T04:45:05.638Z,21.76
2018-08-18T04:47:35.384Z,21.85
2018-08-18T04:50:04.135Z,21.79
2018-08-18T04:52:34.765Z,21.81
2018-08-18T04:55:03.856Z,21.85
2018-08-18T04:57:33.422Z,21.81
2018-08-18T05:00:02.995Z,21.78
2018-08-18T05:02:33.262Z,21.78
2018-08-18T05:05:02.915Z,21.77
2018-08-18T05:07:36.777Z,21.67
2018-08-18T05:10:06.329Z,21.70
2018-08-18T05:12:35.094Z,21.82
2018-08-18T05:15:04.265Z,21.75
2018-08-18T05:17:33.997Z,21.63
2018-08-18T05:20:17.872Z,21.60
2018-08-18T05:22:47.103Z,21.60
2018-08-18T05:25:16.362Z,21.65
2018-08-18T05:27:47.151Z,21.60
2018-08-18T05:30:16.652Z,21.58
2018-08-18T05:32:46.335Z,21.56
2018-08-18T05:35:16.336Z,21.58
2018-08-18T05:37:47.344Z,21.56
2018-08-18T05:40:16.730Z,21.59
2018-08-18T05:42:46.200Z,21.66
2018-08-18T05:45:27.235Z,21.66
2018-08-18T05:47:56.729Z,21.58
2018-08-18T05:50:27.146Z,21.59
2018-08-18T05:53:02.573Z,21.60
2018-08-18T05:55:34.021Z,21.62
2018-08-18T05:58:04.442Z,21.58
2018-08-18T06:00:34.065Z,21.64
2018-08-18T06:03:03.523Z,21.61
2018-08-18T06:05:34.748Z,21.65
2018-08-18T06:08:05.231Z,21.72
2018-08-18T06:10:34.336Z,21.85
2018-08-18T06:13:08.367Z,21.95
2018-08-18T06:15:37.648Z,22.02
2018-08-18T06:18:07.945Z,22.18
2018-08-18T06:20:38.150Z,22.28
2018-08-18T06:23:07.676Z,22.38
2018-08-18T06:25:36.516Z,22.54
2018-08-18T06:28:06.574Z,22.77
2018-08-18T06:30:36.550Z,22.90
2018-08-18T06:33:07.207Z,23.13
2018-08-18T06:35:37.334Z,23.29
2018-08-18T06:38:06.883Z,23.56
2018-08-18T06:40:36.873Z,23.70
2018-08-18T06:43:08.279Z,23.80
2018-08-18T06:45:40.048Z,23.96
2018-08-18T06:48:19.705Z,24.02
2018-08-18T06:50:48.573Z,24.11
2018-08-18T06:53:17.419Z,24.10
2018-08-18T06:55:46.568Z,24.12
2018-08-18T06:58:15.497Z,24.11
2018-08-18T07:00:44.976Z,24.12
2018-08-18T07:03:25.948Z,24.06
2018-08-18T07:05:56.017Z,24.20
2018-08-18T07:08:25.158Z,24.41
2018-08-18T07:10:54.043Z,24.29
2018-08-18T07:13:22.812Z,24.21
2018-08-18T07:15:51.824Z,24.26
2018-08-18T07:18:22.652Z,24.05
2018-08-18T07:20:51.658Z,24.01
2018-08-18T07:23:22.138Z,24.04
2018-08-18T07:25:58.991Z,24.19
2018-08-18T07:28:27.967Z,24.35
2018-08-18T07:30:57.051Z,24.45
2018-08-18T07:33:26.533Z,24.46
2018-08-18T07:35:55.368Z,24.48
2018-08-18T07:38:24.231Z,24.51
2018-08-18T07:40:54.347Z,24.55
2018-08-18T07:43:27.190Z,24.53
2018-08-18T07:45:57.461Z,24.54
2018-08-18T07:48:26.397Z,24.49
2018-08-18T07:50:55.071Z,24.36
2018-08-18T07:53:23.824Z,24.22
2018-08-18T07:55:52.576Z,24.18
2018-08-18T07:58:22.731Z,24.16
2018-08-18T08:00:51.462Z,24.41
2018-08-18T08:03:21.332Z,24.41
2018-08-18T08:05:50.217Z,24.42
2018-08-18T08:08:18.826Z,24.44
2018-08-18T08:10:48.060Z,24.43
2018-08-18T08:13:16.873Z,24.35
2018-08-18T08:15:46.632Z,24.34
2018-08-18T08:18:16.340Z,24.39
2018-08-18T08:20:46.186Z,24.88
2018-08-18T08:23:15.500Z,24.59
2018-08-18T08:25:44.723Z,24.43
2018-08-18T08:28:14.392Z,24.35
2018-08-18T08:30:43.094Z,24.55
2018-08-18T08:33:13.505Z,24.46
2018-08-18T08:35:42.700Z,24.29
2018-08-18T08:38:11.765Z,24.48
2018-08-18T08:40:40.516Z,24.30
2018-08-18T08:43:10.187Z,23.99
2018-08-18T08:45:38.955Z,24.07
2018-08-18T08:48:07.612Z,23.90
2018-08-18T08:50:36.389Z,23.99
2018-08-18T08:53:05.088Z,23.97
2018-08-18T08:55:34.142Z,24.13
2018-08-18T08:58:02.895Z,24.31
2018-08-18T09:00:31.992Z,24.47
2018-08-18T09:03:01.044Z,24.61
2018-08-18T09:05:29.832Z,24.74
2018-08-18T09:07:58.620Z,24.98
2018-08-18T09:10:28.026Z,25.52
2018-08-18T09:12:56.751Z,25.75
2018-08-18T09:15:25.968Z,26.24
2018-08-18T09:17:54.644Z,26.94
2018-08-18T09:20:23.491Z,27.67
2018-08-18T09:22:56.040Z,27.99
2018-08-18T09:25:27.305Z,27.69
2018-08-18T09:27:59.804Z,27.09
2018-08-18T09:30:30.111Z,26.44
2018-08-18T09:33:00.041Z,26.09
2018-08-18T09:35:28.816Z,25.84
2018-08-18T09:38:02.209Z,25.78
2018-08-18T09:40:32.473Z,25.77
2018-08-18T09:43:04.534Z,25.69
2018-08-18T09:45:33.399Z,25.46
2018-08-18T09:48:02.202Z,25.68
2018-08-18T09:50:31.277Z,25.88
2018-08-18T09:52:59.976Z,25.99
2018-08-18T09:55:29.383Z,26.08
2018-08-18T09:57:58.116Z,26.09
2018-08-18T10:00:32.044Z,26.08
2018-08-18T10:03:00.858Z,26.16
2018-08-18T10:05:30.238Z,25.73
2018-08-18T10:07:59.398Z,25.54
2018-08-18T10:10:28.582Z,25.30
2018-08-18T10:12:57.643Z,24.88
2018-08-18T10:15:29.565Z,24.53
2018-08-18T10:17:58.693Z,24.64
2018-08-18T10:20:27.635Z,24.79
2018-08-18T10:22:56.447Z,25.09
2018-08-18T10:25:25.181Z,25.24
2018-08-18T10:27:54.239Z,25.38
2018-08-18T10:30:23.198Z,25.60
2018-08-18T10:32:54.030Z,25.43
2018-08-18T10:35:32.184Z,25.44
2018-08-18T10:38:02.745Z,25.63
2018-08-18T10:40:32.219Z,25.71
2018-08-18T10:43:01.229Z,25.82
2018-08-18T10:45:31.086Z,25.79
2018-08-18T10:48:01.782Z,25.82
2018-08-18T10:51:43.478Z,26.01
2018-08-18T10:54:12.857Z,26.35
2018-08-18T10:56:43.658Z,26.74
2018-08-18T10:59:20.056Z,27.14
2018-08-18T11:01:59.998Z,27.53
2018-08-18T11:04:30.633Z,27.54
2018-08-18T11:06:59.421Z,27.33
2018-08-18T11:09:28.699Z,26.84
2018-08-18T11:11:57.493Z,26.80
2018-08-18T11:14:26.137Z,26.43
2018-08-18T11:16:56.229Z,26.37
2018-08-18T11:19:24.995Z,26.36
2018-08-18T11:22:05.001Z,26.23
2018-08-18T11:24:34.423Z,26.31
2018-08-18T11:27:05.058Z,26.35
2018-08-18T11:29:34.663Z,26.37
2018-08-18T11:32:04.538Z,26.52
2018-08-18T11:34:35.524Z,26.88
2018-08-18T11:37:06.674Z,27.18
2018-08-18T11:39:36.480Z,27.50
2018-08-18T11:42:05.201Z,27.35
2018-08-18T11:44:34.664Z,27.85
2018-08-18T11:47:04.020Z,28.01
2018-08-18T11:49:32.741Z,28.57
2018-08-18T11:52:01.704Z,28.90
2018-08-18T11:54:30.418Z,29.37
2018-08-18T11:56:59.624Z,30.76
2018-08-18T11:59:28.266Z,32.06
2018-08-18T12:01:57.100Z,32.72
2018-08-18T12:04:25.756Z,33.28
2018-08-18T12:06:58.148Z,34.18
2018-08-18T12:09:27.313Z,35.75
2018-08-18T12:11:56.172Z,36.42
2018-08-18T12:14:25.020Z,37.39
2018-08-18T12:16:53.814Z,39.02
2018-08-18T12:19:22.686Z,40.71
2018-08-18T12:21:51.392Z,41.39
2018-08-18T12:24:21.429Z,39.66
2018-08-18T12:27:01.485Z,40.61
2018-08-18T12:29:32.482Z,40.57
2018-08-18T12:32:01.551Z,38.45
2018-08-18T12:34:30.440Z,38.14
2018-08-18T12:36:59.324Z,39.08
2018-08-18T12:39:28.724Z,38.06
2018-08-18T12:41:57.602Z,35.53
2018-08-18T12:44:31.729Z,34.25
2018-08-18T12:47:03.477Z,33.40
2018-08-18T12:49:32.756Z,34.26
2018-08-18T12:52:01.702Z,34.73
2018-08-18T12:54:30.493Z,36.22
2018-08-18T12:56:59.384Z,38.64
2018-08-18T12:59:28.244Z,39.46
2018-08-18T13:01:57.368Z,37.86
2018-08-18T13:04:26.262Z,35.81
2018-08-18T13:06:55.171Z,34.12
2018-08-18T13:09:26.564Z,32.24
2018-08-18T13:11:56.699Z,30.78
2018-08-18T13:14:29.576Z,31.43
2018-08-18T13:16:58.676Z,33.24
2018-08-18T13:19:31.456Z,34.58
2018-08-18T13:22:00.670Z,36.03
2018-08-18T13:24:31.028Z,36.96
2018-08-18T13:27:01.674Z,35.97
2018-08-18T13:29:30.536Z,33.68
2018-08-18T13:31:59.682Z,32.29
2018-08-18T13:34:28.532Z,31.84
2018-08-18T13:36:57.370Z,32.07
2018-08-18T13:39:26.234Z,31.86
2018-08-18T13:41:55.361Z,31.90
2018-08-18T13:44:30.086Z,31.54
2018-08-18T13:46:59.212Z,30.85
2018-08-18T13:49:28.344Z,30.65
2018-08-18T13:51:57.297Z,30.90
2018-08-18T13:54:26.056Z,31.25
2018-08-18T13:56:55.207Z,31.09
2018-08-18T13:59:38.828Z,30.64
2018-08-18T14:02:08.158Z,29.73
2018-08-18T14:04:38.272Z,28.99
2018-08-18T14:07:07.113Z,28.06
2018-08-18T14:09:35.905Z,27.56
2018-08-18T14:12:10.074Z,27.54
2018-08-18T14:14:39.283Z,27.65
2018-08-18T14:17:09.358Z,27.61
2018-08-18T14:19:38.700Z,27.59
2018-08-18T14:22:09.333Z,27.41
2018-08-18T14:24:39.838Z,27.08
2018-08-18T14:27:24.704Z,26.68
2018-08-18T14:29:54.201Z,26.86
2018-08-18T14:32:28.883Z,27.01
2018-08-18T14:35:01.988Z,27.44
2018-08-18T14:37:30.840Z,27.70
2018-08-18T14:40:00.784Z,27.84
2018-08-18T14:42:29.808Z,28.15
2018-08-18T14:45:00.078Z,28.67
2018-08-18T14:47:28.940Z,29.86
2018-08-18T14:50:14.691Z,30.20
2018-08-18T14:52:45.035Z,30.34
2018-08-18T14:55:16.776Z,30.01
2018-08-18T14:58:05.400Z,29.36
2018-08-18T15:00:34.986Z,29.22
2018-08-18T15:03:06.821Z,29.45
2018-08-18T15:05:37.567Z,29.58
2018-08-18T15:08:06.763Z,29.25
2018-08-18T15:10:41.990Z,28.75
2018-08-18T15:13:11.494Z,28.95
2018-08-18T15:15:41.385Z,28.37
2018-08-18T15:18:11.121Z,27.96
2018-08-18T15:20:40.817Z,27.78
2018-08-18T15:23:10.984Z,27.67
2018-08-18T15:25:41.431Z,27.69
2018-08-18T15:28:11.263Z,27.71
2018-08-18T15:30:41.466Z,27.47
2018-08-18T15:33:12.237Z,27.65
2018-08-18T15:35:42.786Z,27.70
2018-08-18T15:38:12.098Z,27.47
2018-08-18T15:40:41.136Z,27.34
2018-08-18T15:43:09.923Z,27.38
2018-08-18T15:46:04.333Z,27.59
2018-08-18T15:48:33.739Z,27.67
2018-08-18T15:51:02.442Z,27.59
2018-08-18T15:53:56.572Z,27.53
2018-08-18T15:56:26.604Z,27.35
2018-08-18T15:59:00.341Z,27.35
2018-08-18T16:01:32.811Z,27.24
2018-08-18T16:04:04.683Z,27.14
2018-08-18T16:06:35.169Z,26.94
2018-08-18T16:09:05.629Z,27.00
2018-08-18T16:11:35.923Z,27.08
2018-08-18T16:14:05.860Z,27.21
2018-08-18T16:16:48.809Z,27.14
2018-08-18T16:19:17.512Z,27.00
2018-08-18T16:21:47.377Z,26.88
2018-08-18T16:24:28.991Z,26.85
2018-08-18T16:27:01.795Z,26.86
2018-08-18T16:29:30.749Z,26.77
2018-08-18T16:32:13.558Z,26.75
2018-08-18T16:34:43.806Z,26.64
2018-08-18T16:37:13.229Z,26.55
2018-08-18T16:39:43.221Z,26.44
2018-08-18T16:42:13.628Z,26.42
2018-08-18T16:44:43.021Z,26.43
2018-08-18T16:47:12.442Z,26.47
2018-08-18T16:49:42.322Z,26.45
2018-08-18T16:52:11.342Z,26.38
2018-08-18T16:54:41.672Z,26.28
2018-08-18T16:57:10.989Z,26.17
2018-08-18T16:59:40.628Z,26.10
2018-08-18T17:02:19.056Z,26.05
2018-08-18T17:04:49.504Z,26.06
2018-08-18T17:07:23.275Z,25.99
2018-08-18T17:09:52.295Z,25.85
2018-08-18T17:12:23.304Z,25.78
2018-08-18T17:14:54.593Z,25.75
2018-08-18T17:17:24.627Z,25.77
2018-08-18T17:19:54.137Z,25.79
2018-08-18T17:22:27.064Z,25.81
2018-08-18T17:24:58.162Z,25.77
2018-08-18T17:27:30.207Z,25.79
2018-08-18T17:30:01.961Z,25.83
2018-08-18T17:32:30.720Z,25.80
2018-08-18T17:35:00.625Z,25.74
2018-08-18T17:37:29.797Z,25.68
2018-08-18T17:39:59.189Z,25.60
2018-08-18T17:42:28.135Z,25.57
2018-08-18T17:44:58.438Z,25.56
2018-08-18T17:50:12.743Z,25.53
2018-08-18T17:52:51.811Z,25.50
2018-08-18T17:55:24.906Z,25.47
2018-08-18T17:57:54.205Z,25.43
2018-08-18T18:00:25.363Z,25.39
2018-08-18T18:02:57.584Z,25.37
2018-08-18T18:05:29.201Z,25.35
2018-08-18T18:08:01.629Z,25.32
2018-08-18T18:10:32.817Z,25.27
2018-08-18T18:13:01.828Z,25.22
2018-08-18T18:15:33.995Z,25.17
2018-08-18T18:18:04.750Z,25.13
2018-08-18T18:20:35.383Z,25.09
2018-08-18T18:23:05.223Z,25.06
2018-08-18T18:25:35.123Z,25.03
2018-08-18T18:28:05.236Z,25.01
2018-08-18T18:30:33.994Z,24.99
2018-08-18T18:33:03.117Z,24.93
2018-08-18T18:35:32.545Z,24.87
2018-08-18T18:38:02.868Z,24.84
2018-08-18T18:40:35.713Z,24.82
2018-08-18T18:43:06.005Z,24.75
2018-08-18T18:45:35.934Z,24.73
2018-08-18T18:48:06.151Z,24.70
2018-08-18T18:50:36.152Z,24.69
2018-08-18T18:53:06.646Z,24.66
2018-08-18T18:55:42.308Z,24.65
2018-08-18T18:58:13.605Z,24.62
2018-08-18T19:00:47.234Z,24.59
2018-08-18T19:03:17.336Z,24.56
2018-08-18T19:05:48.753Z,24.52
2018-08-18T19:08:21.448Z,24.50
2018-08-18T19:10:53.175Z,24.46
2018-08-18T19:13:22.385Z,24.43
2018-08-18T19:15:51.936Z,24.40
2018-08-18T19:18:22.899Z,24.38
2018-08-18T19:20:52.477Z,24.34
2018-08-18T19:23:22.518Z,24.30
2018-08-18T19:25:52.335Z,24.28
2018-08-18T19:28:24.061Z,24.23
2018-08-18T19:30:52.765Z,24.19
2018-08-18T19:33:21.946Z,24.17
2018-08-18T19:35:52.423Z,24.14
2018-08-18T19:38:22.830Z,24.12
2018-08-18T19:40:53.667Z,24.11
2018-08-18T19:43:24.926Z,24.10
2018-08-18T19:45:54.655Z,24.07
2018-08-18T19:48:26.295Z,24.05
2018-08-18T19:51:02.054Z,23.98
2018-08-18T19:53:32.115Z,23.96
2018-08-18T19:56:01.692Z,23.92
2018-08-18T19:58:33.232Z,23.90
2018-08-18T20:01:02.867Z,23.87
2018-08-18T20:03:31.865Z,23.86
2018-08-18T20:06:01.952Z,23.84
2018-08-18T20:08:30.975Z,23.81
2018-08-18T20:11:01.158Z,23.75
2018-08-18T20:13:31.764Z,23.73
2018-08-18T20:16:01.929Z,23.67
2018-08-18T20:18:31.996Z,23.61
2018-08-18T20:21:01.037Z,23.57
2018-08-18T20:23:30.305Z,23.53
2018-08-18T20:25:59.469Z,23.53
2018-08-18T20:28:29.221Z,23.53
2018-08-18T20:31:00.220Z,23.53
2018-08-18T20:33:29.553Z,23.54
2018-08-18T20:36:03.316Z,23.53
2018-08-18T20:38:38.447Z,23.55
2018-08-18T20:41:07.776Z,23.52
2018-08-18T20:43:38.023Z,23.50
2018-08-18T20:46:07.910Z,23.44
2018-08-18T20:48:38.439Z,23.43
2018-08-18T20:51:09.280Z,23.40
2018-08-18T20:53:38.430Z,23.38
2018-08-18T20:56:07.677Z,23.30
2018-08-18T20:58:37.560Z,23.22
2018-08-18T21:01:06.370Z,23.20
2018-08-18T21:03:47.912Z,23.19
2018-08-18T21:06:18.254Z,23.21
2018-08-18T21:08:47.513Z,23.22
2018-08-18T21:11:16.301Z,23.23
2018-08-18T21:13:49.701Z,23.22
2018-08-18T21:16:24.791Z,23.21
2018-08-18T21:18:54.027Z,23.21
2018-08-18T21:21:36.244Z,23.19
2018-08-18T21:31:04.228Z,22.98
2018-08-18T21:33:33.397Z,22.96
2018-08-18T21:36:02.134Z,22.94
2018-08-18T21:38:32.869Z,22.95
2018-08-18T21:41:01.619Z,22.87
2018-08-18T21:43:33.951Z,22.85
2018-08-18T21:46:03.910Z,22.81
2018-08-18T21:48:43.724Z,22.80
2018-08-18T21:51:12.876Z,22.78
2018-08-18T21:53:43.276Z,22.80
2018-08-18T21:56:12.818Z,22.80
2018-08-18T21:58:42.118Z,22.80
2018-08-18T22:01:17.822Z,22.80
2018-08-18T22:03:47.902Z,22.80
2018-08-18T22:06:19.284Z,22.80
2018-08-18T22:08:48.190Z,22.81
2018-08-18T22:11:19.018Z,22.78
2018-08-18T22:13:53.027Z,22.77
2018-08-18T22:16:22.527Z,22.76
2018-08-18T22:18:58.685Z,22.73
2018-08-18T22:21:30.425Z,22.70
2018-08-18T22:24:01.644Z,22.69
2018-08-18T22:26:31.599Z,22.65
2018-08-18T22:29:03.537Z,22.65
2018-08-18T22:31:33.278Z,22.63
2018-08-18T22:34:05.459Z,22.60
2018-08-18T22:36:35.804Z,22.55
2018-08-18T22:39:08.385Z,22.53
2018-08-18T22:41:37.351Z,22.51
2018-08-18T22:44:07.783Z,22.51
2018-08-18T22:46:38.002Z,22.48
2018-08-18T22:49:07.640Z,22.44
2018-08-18T22:51:38.101Z,22.42
2018-08-18T22:54:08.489Z,22.38
2018-08-18T22:56:39.162Z,22.32
2018-08-18T22:59:09.435Z,22.26
2018-08-18T23:01:39.521Z,22.29
2018-08-18T23:04:28.218Z,22.30
2018-08-18T23:06:58.569Z,22.31
2018-08-18T23:09:28.707Z,22.16
2018-08-18T23:11:59.935Z,22.03
2018-08-18T23:14:34.762Z,21.87
2018-08-18T23:17:04.328Z,21.83
2018-08-18T23:19:34.354Z,21.86
2018-08-18T23:22:04.146Z,21.87
2018-08-18T23:24:40.039Z,21.80
2018-08-18T23:27:09.493Z,21.84
2018-08-18T23:29:39.808Z,21.85
2018-08-18T23:32:27.521Z,21.87
2018-08-18T23:34:58.131Z,21.90
2018-08-18T23:37:28.028Z,21.89
2018-08-18T23:39:57.628Z,21.92
2018-08-18T23:42:27.588Z,21.91
2018-08-18T23:44:57.007Z,21.90
2018-08-18T23:47:27.218Z,21.88
2018-08-18T23:49:55.999Z,21.90
2018-08-18T23:52:26.959Z,21.87
2018-08-18T23:54:56.754Z,21.84
2018-08-18T23:57:26.229Z,21.76
2018-08-18T23:59:56.285Z,21.76
